sensor_id;sensor_type;location;lat;lon;timestamp;P1;durP1;ratioP1;P2;durP2;ratioP2
49962;SDS011;36180;57.678;11.910;2023-07-29T00:00:45;5.65;;;4.00;;
49962;SDS011;36180;57.678;11.910;2023-07-29T00:03:12;7.18;;;3.90;;
49962;SDS011;36180;57.678;11.910;2023-07-29T00:05:40;7.20;;;3.92;;
49962;SDS011;36180;57.678;11.910;2023-07-29T00:08:07;5.80;;;4.35;;
49962;SDS011;36180;57.678;11.910;2023-07-29T00:10:35;5.05;;;4.20;;
49962;SDS011;36180;57.678;11.910;2023-07-29T00:13:04;6.38;;;3.92;;
49962;SDS011;36180;57.678;11.910;2023-07-29T00:15:31;5.03;;;3.97;;
49962;SDS011;36180;57.678;11.910;2023-07-29T00:17:58;7.97;;;3.95;;
49962;SDS011;36180;57.678;11.910;2023-07-29T00:20:25;7.63;;;4.32;;
49962;SDS011;36180;57.678;11.910;2023-07-29T00:22:54;4.38;;;3.97;;
49962;SDS011;36180;57.678;11.910;2023-07-29T00:25:22;5.22;;;3.45;;
49962;SDS011;36180;57.678;11.910;2023-07-29T00:27:49;6.15;;;3.90;;
49962;SDS011;36180;57.678;11.910;2023-07-29T00:30:16;5.65;;;3.72;;
49962;SDS011;36180;57.678;11.910;2023-07-29T00:32:43;6.07;;;3.85;;
49962;SDS011;36180;57.678;11.910;2023-07-29T00:35:11;6.20;;;4.22;;
49962;SDS011;36180;57.678;11.910;2023-07-29T00:37:38;3.95;;;3.50;;
49962;SDS011;36180;57.678;11.910;2023-07-29T00:40:09;6.90;;;3.72;;
49962;SDS011;36180;57.678;11.910;2023-07-29T00:42:41;6.07;;;3.72;;
49962;SDS011;36180;57.678;11.910;2023-07-29T00:45:08;7.20;;;3.90;;
49962;SDS011;36180;57.678;11.910;2023-07-29T00:47:36;4.05;;;3.50;;
49962;SDS011;36180;57.678;11.910;2023-07-29T00:50:03;4.97;;;3.60;;
49962;SDS011;36180;57.678;11.910;2023-07-29T00:52:31;6.40;;;3.70;;
49962;SDS011;36180;57.678;11.910;2023-07-29T00:54:57;5.43;;;4.05;;
49962;SDS011;36180;57.678;11.910;2023-07-29T00:57:26;7.18;;;4.07;;
49962;SDS011;36180;57.678;11.910;2023-07-29T00:59:53;7.50;;;3.67;;
49962;SDS011;36180;57.678;11.910;2023-07-29T01:02:21;5.32;;;3.40;;
49962;SDS011;36180;57.678;11.910;2023-07-29T01:04:51;4.40;;;3.55;;
49962;SDS011;36180;57.678;11.910;2023-07-29T01:07:19;4.75;;;3.22;;
49962;SDS011;36180;57.678;11.910;2023-07-29T01:09:51;6.30;;;4.07;;
49962;SDS011;36180;57.678;11.910;2023-07-29T01:12:27;6.15;;;4.03;;
49962;SDS011;36180;57.678;11.910;2023-07-29T01:15:01;5.32;;;3.40;;
49962;SDS011;36180;57.678;11.910;2023-07-29T01:17:36;4.68;;;3.53;;
49962;SDS011;36180;57.678;11.910;2023-07-29T01:20:07;6.55;;;4.15;;
49962;SDS011;36180;57.678;11.910;2023-07-29T01:22:35;7.55;;;3.92;;
49962;SDS011;36180;57.678;11.910;2023-07-29T01:25:07;5.95;;;3.53;;
49962;SDS011;36180;57.678;11.910;2023-07-29T01:27:34;5.43;;;4.00;;
49962;SDS011;36180;57.678;11.910;2023-07-29T01:30:01;4.20;;;3.75;;
49962;SDS011;36180;57.678;11.910;2023-07-29T01:32:30;7.70;;;4.07;;
49962;SDS011;36180;57.678;11.910;2023-07-29T01:35:03;4.38;;;3.72;;
49962;SDS011;36180;57.678;11.910;2023-07-29T01:37:34;4.00;;;3.60;;
49962;SDS011;36180;57.678;11.910;2023-07-29T01:40:07;8.30;;;3.97;;
49962;SDS011;36180;57.678;11.910;2023-07-29T01:42:35;6.07;;;3.92;;
49962;SDS011;36180;57.678;11.910;2023-07-29T01:45:04;5.30;;;3.95;;
49962;SDS011;36180;57.678;11.910;2023-07-29T01:47:31;6.22;;;3.88;;
49962;SDS011;36180;57.678;11.910;2023-07-29T01:49:58;4.95;;;4.25;;
49962;SDS011;36180;57.678;11.910;2023-07-29T01:52:26;5.13;;;3.92;;
49962;SDS011;36180;57.678;11.910;2023-07-29T01:54:53;6.50;;;4.03;;
49962;SDS011;36180;57.678;11.910;2023-07-29T01:57:21;6.60;;;3.90;;
49962;SDS011;36180;57.678;11.910;2023-07-29T01:59:48;6.03;;;4.20;;
49962;SDS011;36180;57.678;11.910;2023-07-29T02:02:15;7.32;;;4.05;;
49962;SDS011;36180;57.678;11.910;2023-07-29T02:04:43;6.07;;;3.80;;
49962;SDS011;36180;57.678;11.910;2023-07-29T02:07:10;5.70;;;3.55;;
49962;SDS011;36180;57.678;11.910;2023-07-29T02:09:38;6.57;;;3.83;;
49962;SDS011;36180;57.678;11.910;2023-07-29T02:12:05;5.93;;;3.90;;
49962;SDS011;36180;57.678;11.910;2023-07-29T02:14:37;5.10;;;4.03;;
49962;SDS011;36180;57.678;11.910;2023-07-29T02:17:05;8.82;;;3.95;;
49962;SDS011;36180;57.678;11.910;2023-07-29T02:19:32;6.38;;;3.20;;
49962;SDS011;36180;57.678;11.910;2023-07-29T02:21:59;6.60;;;3.42;;
49962;SDS011;36180;57.678;11.910;2023-07-29T02:24:26;4.85;;;3.00;;
49962;SDS011;36180;57.678;11.910;2023-07-29T02:26:53;5.38;;;3.65;;
49962;SDS011;36180;57.678;11.910;2023-07-29T02:29:20;8.50;;;3.88;;
49962;SDS011;36180;57.678;11.910;2023-07-29T02:31:49;5.15;;;3.80;;
49962;SDS011;36180;57.678;11.910;2023-07-29T02:34:16;5.93;;;3.80;;
49962;SDS011;36180;57.678;11.910;2023-07-29T02:36:43;5.93;;;3.70;;
49962;SDS011;36180;57.678;11.910;2023-07-29T02:39:11;5.15;;;3.92;;
49962;SDS011;36180;57.678;11.910;2023-07-29T02:41:38;3.95;;;3.55;;
49962;SDS011;36180;57.678;11.910;2023-07-29T02:44:05;4.35;;;3.78;;
49962;SDS011;36180;57.678;11.910;2023-07-29T02:46:32;5.88;;;4.10;;
49962;SDS011;36180;57.678;11.910;2023-07-29T02:49:01;6.03;;;4.38;;
49962;SDS011;36180;57.678;11.910;2023-07-29T02:51:28;4.47;;;3.67;;
49962;SDS011;36180;57.678;11.910;2023-07-29T02:53:55;5.72;;;4.18;;
49962;SDS011;36180;57.678;11.910;2023-07-29T02:56:22;5.10;;;4.53;;
49962;SDS011;36180;57.678;11.910;2023-07-29T02:58:49;7.25;;;3.85;;
49962;SDS011;36180;57.678;11.910;2023-07-29T03:01:17;7.57;;;4.30;;
49962;SDS011;36180;57.678;11.910;2023-07-29T03:03:45;5.28;;;3.95;;
49962;SDS011;36180;57.678;11.910;2023-07-29T03:06:13;5.22;;;4.07;;
49962;SDS011;36180;57.678;11.910;2023-07-29T03:08:41;5.10;;;4.22;;
49962;SDS011;36180;57.678;11.910;2023-07-29T03:11:08;4.75;;;4.18;;
49962;SDS011;36180;57.678;11.910;2023-07-29T03:13:36;6.32;;;4.30;;
49962;SDS011;36180;57.678;11.910;2023-07-29T03:16:07;5.68;;;4.07;;
49962;SDS011;36180;57.678;11.910;2023-07-29T03:18:36;6.68;;;4.18;;
49962;SDS011;36180;57.678;11.910;2023-07-29T03:21:04;5.78;;;4.20;;
49962;SDS011;36180;57.678;11.910;2023-07-29T03:23:32;5.95;;;3.92;;
49962;SDS011;36180;57.678;11.910;2023-07-29T03:26:00;5.82;;;4.25;;
49962;SDS011;36180;57.678;11.910;2023-07-29T03:28:35;5.90;;;3.97;;
49962;SDS011;36180;57.678;11.910;2023-07-29T03:31:02;6.30;;;4.03;;
49962;SDS011;36180;57.678;11.910;2023-07-29T03:33:30;6.03;;;4.00;;
49962;SDS011;36180;57.678;11.910;2023-07-29T03:35:57;4.72;;;4.03;;
49962;SDS011;36180;57.678;11.910;2023-07-29T03:38:24;6.13;;;4.28;;
49962;SDS011;36180;57.678;11.910;2023-07-29T03:40:54;5.60;;;4.20;;
49962;SDS011;36180;57.678;11.910;2023-07-29T03:43:21;4.72;;;3.85;;
49962;SDS011;36180;57.678;11.910;2023-07-29T03:45:48;3.78;;;3.40;;
49962;SDS011;36180;57.678;11.910;2023-07-29T03:48:16;4.07;;;3.60;;
49962;SDS011;36180;57.678;11.910;2023-07-29T03:50:43;4.85;;;3.53;;
49962;SDS011;36180;57.678;11.910;2023-07-29T03:53:10;5.85;;;4.00;;
49962;SDS011;36180;57.678;11.910;2023-07-29T03:55:37;5.10;;;3.80;;
49962;SDS011;36180;57.678;11.910;2023-07-29T03:58:05;6.07;;;4.10;;
49962;SDS011;36180;57.678;11.910;2023-07-29T04:00:32;4.22;;;3.83;;
49962;SDS011;36180;57.678;11.910;2023-07-29T04:03:00;5.10;;;3.17;;
49962;SDS011;36180;57.678;11.910;2023-07-29T04:05:27;6.93;;;3.60;;
49962;SDS011;36180;57.678;11.910;2023-07-29T04:07:54;6.20;;;3.63;;
49962;SDS011;36180;57.678;11.910;2023-07-29T04:10:21;5.10;;;3.53;;
49962;SDS011;36180;57.678;11.910;2023-07-29T04:12:48;5.20;;;3.45;;
49962;SDS011;36180;57.678;11.910;2023-07-29T04:15:17;3.78;;;3.28;;
49962;SDS011;36180;57.678;11.910;2023-07-29T04:17:44;7.57;;;3.70;;
49962;SDS011;36180;57.678;11.910;2023-07-29T04:20:11;5.13;;;4.15;;
49962;SDS011;36180;57.678;11.910;2023-07-29T04:22:38;4.40;;;3.97;;
49962;SDS011;36180;57.678;11.910;2023-07-29T04:25:06;5.65;;;4.60;;
49962;SDS011;36180;57.678;11.910;2023-07-29T04:27:33;7.50;;;4.13;;
49962;SDS011;36180;57.678;11.910;2023-07-29T04:30:00;6.45;;;4.20;;
49962;SDS011;36180;57.678;11.910;2023-07-29T04:32:29;5.20;;;3.80;;
49962;SDS011;36180;57.678;11.910;2023-07-29T04:34:56;4.85;;;4.00;;
49962;SDS011;36180;57.678;11.910;2023-07-29T04:37:23;6.78;;;4.63;;
49962;SDS011;36180;57.678;11.910;2023-07-29T04:39:50;6.40;;;4.38;;
49962;SDS011;36180;57.678;11.910;2023-07-29T04:42:17;5.10;;;4.60;;
49962;SDS011;36180;57.678;11.910;2023-07-29T04:44:45;5.57;;;3.88;;
49962;SDS011;36180;57.678;11.910;2023-07-29T04:47:12;6.35;;;4.60;;
49962;SDS011;36180;57.678;11.910;2023-07-29T04:49:41;5.03;;;4.43;;
49962;SDS011;36180;57.678;11.910;2023-07-29T04:52:08;6.63;;;4.88;;
49962;SDS011;36180;57.678;11.910;2023-07-29T04:54:35;6.50;;;5.15;;
49962;SDS011;36180;57.678;11.910;2023-07-29T04:57:02;6.15;;;4.60;;
49962;SDS011;36180;57.678;11.910;2023-07-29T04:59:30;5.93;;;4.70;;
49962;SDS011;36180;57.678;11.910;2023-07-29T05:01:57;5.88;;;4.70;;
49962;SDS011;36180;57.678;11.910;2023-07-29T05:04:24;9.32;;;4.75;;
49962;SDS011;36180;57.678;11.910;2023-07-29T05:06:52;5.60;;;4.88;;
49962;SDS011;36180;57.678;11.910;2023-07-29T05:09:19;8.07;;;5.30;;
49962;SDS011;36180;57.678;11.910;2023-07-29T05:11:47;7.90;;;5.43;;
49962;SDS011;36180;57.678;11.910;2023-07-29T05:14:15;6.93;;;5.32;;
49962;SDS011;36180;57.678;11.910;2023-07-29T05:16:43;5.10;;;4.53;;
49962;SDS011;36180;57.678;11.910;2023-07-29T05:19:10;6.25;;;4.60;;
49962;SDS011;36180;57.678;11.910;2023-07-29T05:21:38;4.93;;;4.38;;
49962;SDS011;36180;57.678;11.910;2023-07-29T05:24:07;4.90;;;3.92;;
49962;SDS011;36180;57.678;11.910;2023-07-29T05:26:34;4.80;;;3.45;;
49962;SDS011;36180;57.678;11.910;2023-07-29T05:29:01;5.50;;;4.60;;
49962;SDS011;36180;57.678;11.910;2023-07-29T05:31:29;4.55;;;3.45;;
49962;SDS011;36180;57.678;11.910;2023-07-29T05:33:56;7.47;;;4.13;;
49962;SDS011;36180;57.678;11.910;2023-07-29T05:36:23;3.97;;;3.55;;
49962;SDS011;36180;57.678;11.910;2023-07-29T05:38:51;5.25;;;3.60;;
49962;SDS011;36180;57.678;11.910;2023-07-29T05:41:20;9.82;;;3.88;;
49962;SDS011;36180;57.678;11.910;2023-07-29T05:43:47;5.65;;;3.83;;
49962;SDS011;36180;57.678;11.910;2023-07-29T05:46:14;4.53;;;3.92;;
49962;SDS011;36180;57.678;11.910;2023-07-29T05:48:41;5.47;;;3.50;;
49962;SDS011;36180;57.678;11.910;2023-07-29T05:51:08;4.07;;;3.55;;
49962;SDS011;36180;57.678;11.910;2023-07-29T05:53:35;5.38;;;4.00;;
49962;SDS011;36180;57.678;11.910;2023-07-29T05:56:03;6.15;;;3.70;;
49962;SDS011;36180;57.678;11.910;2023-07-29T05:58:31;4.13;;;3.40;;
49962;SDS011;36180;57.678;11.910;2023-07-29T06:00:58;5.47;;;3.45;;
49962;SDS011;36180;57.678;11.910;2023-07-29T06:03:26;4.45;;;3.45;;
49962;SDS011;36180;57.678;11.910;2023-07-29T06:05:53;7.28;;;3.78;;
49962;SDS011;36180;57.678;11.910;2023-07-29T06:08:21;5.13;;;3.97;;
49962;SDS011;36180;57.678;11.910;2023-07-29T06:10:48;5.65;;;3.20;;
49962;SDS011;36180;57.678;11.910;2023-07-29T06:13:15;3.50;;;3.17;;
49962;SDS011;36180;57.678;11.910;2023-07-29T06:15:44;4.05;;;3.22;;
49962;SDS011;36180;57.678;11.910;2023-07-29T06:18:11;4.95;;;3.42;;
49962;SDS011;36180;57.678;11.910;2023-07-29T06:20:38;6.25;;;2.95;;
49962;SDS011;36180;57.678;11.910;2023-07-29T06:23:05;4.53;;;3.63;;
49962;SDS011;36180;57.678;11.910;2023-07-29T06:25:33;3.83;;;3.45;;
49962;SDS011;36180;57.678;11.910;2023-07-29T06:28:00;4.10;;;3.40;;
49962;SDS011;36180;57.678;11.910;2023-07-29T06:30:27;3.78;;;3.25;;
49962;SDS011;36180;57.678;11.910;2023-07-29T06:32:55;4.20;;;3.20;;
49962;SDS011;36180;57.678;11.910;2023-07-29T06:35:22;4.55;;;3.78;;
49962;SDS011;36180;57.678;11.910;2023-07-29T06:37:49;4.93;;;3.17;;
49962;SDS011;36180;57.678;11.910;2023-07-29T06:40:16;4.20;;;2.97;;
49962;SDS011;36180;57.678;11.910;2023-07-29T06:42:44;3.53;;;2.72;;
49962;SDS011;36180;57.678;11.910;2023-07-29T06:45:11;5.47;;;2.97;;
49962;SDS011;36180;57.678;11.910;2023-07-29T06:47:38;3.42;;;3.13;;
49962;SDS011;36180;57.678;11.910;2023-07-29T06:50:06;5.72;;;3.35;;
49962;SDS011;36180;57.678;11.910;2023-07-29T06:52:34;3.88;;;2.95;;
49962;SDS011;36180;57.678;11.910;2023-07-29T06:55:02;5.50;;;3.00;;
49962;SDS011;36180;57.678;11.910;2023-07-29T06:57:29;5.45;;;3.55;;
49962;SDS011;36180;57.678;11.910;2023-07-29T06:59:56;7.28;;;3.33;;
49962;SDS011;36180;57.678;11.910;2023-07-29T07:02:23;4.63;;;3.33;;
49962;SDS011;36180;57.678;11.910;2023-07-29T07:04:50;3.83;;;2.83;;
49962;SDS011;36180;57.678;11.910;2023-07-29T07:07:19;5.10;;;2.92;;
49962;SDS011;36180;57.678;11.910;2023-07-29T07:09:46;5.13;;;2.92;;
49962;SDS011;36180;57.678;11.910;2023-07-29T07:12:13;3.72;;;3.20;;
49962;SDS011;36180;57.678;11.910;2023-07-29T07:14:40;7.25;;;3.25;;
49962;SDS011;36180;57.678;11.910;2023-07-29T07:17:07;3.75;;;2.88;;
49962;SDS011;36180;57.678;11.910;2023-07-29T07:19:34;6.63;;;3.55;;
49962;SDS011;36180;57.678;11.910;2023-07-29T07:22:01;4.18;;;3.00;;
49962;SDS011;36180;57.678;11.910;2023-07-29T07:24:29;6.50;;;3.30;;
49962;SDS011;36180;57.678;11.910;2023-07-29T07:26:56;4.28;;;3.08;;
49962;SDS011;36180;57.678;11.910;2023-07-29T07:29:23;5.68;;;3.13;;
49962;SDS011;36180;57.678;11.910;2023-07-29T07:31:51;5.80;;;2.97;;
49962;SDS011;36180;57.678;11.910;2023-07-29T07:34:19;4.03;;;3.10;;
49962;SDS011;36180;57.678;11.910;2023-07-29T07:36:46;6.68;;;3.35;;
49962;SDS011;36180;57.678;11.910;2023-07-29T07:39:13;3.85;;;2.80;;
49962;SDS011;36180;57.678;11.910;2023-07-29T07:41:42;4.15;;;3.30;;
49962;SDS011;36180;57.678;11.910;2023-07-29T07:44:09;4.88;;;3.25;;
49962;SDS011;36180;57.678;11.910;2023-07-29T07:46:40;3.65;;;2.95;;
49962;SDS011;36180;57.678;11.910;2023-07-29T07:49:07;8.43;;;2.80;;
49962;SDS011;36180;57.678;11.910;2023-07-29T07:51:34;5.07;;;3.47;;
49962;SDS011;36180;57.678;11.910;2023-07-29T07:54:01;7.45;;;2.92;;
49962;SDS011;36180;57.678;11.910;2023-07-29T07:56:28;6.35;;;3.40;;
49962;SDS011;36180;57.678;11.910;2023-07-29T07:58:57;5.70;;;3.35;;
49962;SDS011;36180;57.678;11.910;2023-07-29T08:01:24;4.88;;;3.30;;
49962;SDS011;36180;57.678;11.910;2023-07-29T08:03:51;3.85;;;2.80;;
49962;SDS011;36180;57.678;11.910;2023-07-29T08:06:18;6.40;;;3.67;;
49962;SDS011;36180;57.678;11.910;2023-07-29T08:08:45;6.95;;;3.53;;
49962;SDS011;36180;57.678;11.910;2023-07-29T08:11:12;4.57;;;3.10;;
49962;SDS011;36180;57.678;11.910;2023-07-29T08:13:39;7.43;;;3.13;;
49962;SDS011;36180;57.678;11.910;2023-07-29T08:16:08;5.07;;;3.45;;
49962;SDS011;36180;57.678;11.910;2023-07-29T08:18:35;6.30;;;3.55;;
49962;SDS011;36180;57.678;11.910;2023-07-29T08:21:02;3.88;;;2.92;;
49962;SDS011;36180;57.678;11.910;2023-07-29T08:23:30;4.57;;;3.05;;
49962;SDS011;36180;57.678;11.910;2023-07-29T08:25:58;5.28;;;3.20;;
49962;SDS011;36180;57.678;11.910;2023-07-29T08:28:27;6.72;;;3.67;;
49962;SDS011;36180;57.678;11.910;2023-07-29T08:30:55;4.93;;;3.28;;
49962;SDS011;36180;57.678;11.910;2023-07-29T08:33:23;5.28;;;3.53;;
49962;SDS011;36180;57.678;11.910;2023-07-29T08:35:50;7.03;;;3.22;;
49962;SDS011;36180;57.678;11.910;2023-07-29T08:38:17;5.20;;;3.28;;
49962;SDS011;36180;57.678;11.910;2023-07-29T08:40:46;5.72;;;3.58;;
49962;SDS011;36180;57.678;11.910;2023-07-29T08:43:18;4.03;;;3.33;;
49962;SDS011;36180;57.678;11.910;2023-07-29T08:45:46;7.13;;;3.50;;
49962;SDS011;36180;57.678;11.910;2023-07-29T08:48:13;4.10;;;3.15;;
49962;SDS011;36180;57.678;11.910;2023-07-29T08:50:43;5.55;;;3.20;;
49962;SDS011;36180;57.678;11.910;2023-07-29T08:53:11;6.55;;;3.75;;
49962;SDS011;36180;57.678;11.910;2023-07-29T08:55:38;6.90;;;3.60;;
49962;SDS011;36180;57.678;11.910;2023-07-29T08:58:06;4.90;;;3.35;;
49962;SDS011;36180;57.678;11.910;2023-07-29T09:00:33;5.43;;;3.20;;
49962;SDS011;36180;57.678;11.910;2023-07-29T09:03:01;8.27;;;3.85;;
49962;SDS011;36180;57.678;11.910;2023-07-29T09:05:32;6.53;;;3.63;;
49962;SDS011;36180;57.678;11.910;2023-07-29T09:08:01;5.13;;;3.80;;
49962;SDS011;36180;57.678;11.910;2023-07-29T09:10:29;5.95;;;3.67;;
49962;SDS011;36180;57.678;11.910;2023-07-29T09:12:56;4.93;;;3.95;;
49962;SDS011;36180;57.678;11.910;2023-07-29T09:15:26;6.45;;;4.07;;
49962;SDS011;36180;57.678;11.910;2023-07-29T09:17:55;4.63;;;3.97;;
49962;SDS011;36180;57.678;11.910;2023-07-29T09:20:23;4.72;;;3.40;;
49962;SDS011;36180;57.678;11.910;2023-07-29T09:22:52;7.07;;;3.70;;
49962;SDS011;36180;57.678;11.910;2023-07-29T09:25:23;4.95;;;3.30;;
49962;SDS011;36180;57.678;11.910;2023-07-29T09:27:51;6.70;;;3.58;;
49962;SDS011;36180;57.678;11.910;2023-07-29T09:30:18;5.95;;;4.10;;
49962;SDS011;36180;57.678;11.910;2023-07-29T09:32:45;4.82;;;3.13;;
49962;SDS011;36180;57.678;11.910;2023-07-29T09:35:12;8.32;;;3.72;;
49962;SDS011;36180;57.678;11.910;2023-07-29T09:37:39;6.85;;;3.30;;
49962;SDS011;36180;57.678;11.910;2023-07-29T09:42:50;8.52;;;3.60;;
49962;SDS011;36180;57.678;11.910;2023-07-29T09:45:21;6.07;;;3.47;;
49962;SDS011;36180;57.678;11.910;2023-07-29T09:47:49;5.50;;;3.55;;
49962;SDS011;36180;57.678;11.910;2023-07-29T09:50:16;5.30;;;3.40;;
49962;SDS011;36180;57.678;11.910;2023-07-29T09:52:43;6.13;;;3.95;;
49962;SDS011;36180;57.678;11.910;2023-07-29T09:55:11;5.45;;;3.72;;
49962;SDS011;36180;57.678;11.910;2023-07-29T09:57:39;5.82;;;3.97;;
49962;SDS011;36180;57.678;11.910;2023-07-29T10:00:10;4.32;;;3.08;;
49962;SDS011;36180;57.678;11.910;2023-07-29T10:02:38;6.20;;;3.72;;
49962;SDS011;36180;57.678;11.910;2023-07-29T10:05:06;6.70;;;3.28;;
49962;SDS011;36180;57.678;11.910;2023-07-29T10:07:34;3.90;;;3.00;;
49962;SDS011;36180;57.678;11.910;2023-07-29T10:10:03;6.45;;;3.08;;
49962;SDS011;36180;57.678;11.910;2023-07-29T10:12:31;5.25;;;3.35;;
49962;SDS011;36180;57.678;11.910;2023-07-29T10:14:59;5.95;;;3.63;;
49962;SDS011;36180;57.678;11.910;2023-07-29T10:17:29;4.78;;;3.50;;
49962;SDS011;36180;57.678;11.910;2023-07-29T10:19:56;5.80;;;3.50;;
49962;SDS011;36180;57.678;11.910;2023-07-29T10:22:24;10.05;;;3.70;;
49962;SDS011;36180;57.678;11.910;2023-07-29T10:24:56;13.18;;;4.20;;
49962;SDS011;36180;57.678;11.910;2023-07-29T10:27:31;8.50;;;3.97;;
49962;SDS011;36180;57.678;11.910;2023-07-29T10:30:02;5.68;;;4.05;;
49962;SDS011;36180;57.678;11.910;2023-07-29T10:32:30;9.90;;;4.25;;
49962;SDS011;36180;57.678;11.910;2023-07-29T10:34:58;10.80;;;5.00;;
49962;SDS011;36180;57.678;11.910;2023-07-29T10:37:26;8.50;;;5.10;;
49962;SDS011;36180;57.678;11.910;2023-07-29T10:39:55;10.52;;;6.55;;
49962;SDS011;36180;57.678;11.910;2023-07-29T10:42:22;8.35;;;6.70;;
49962;SDS011;36180;57.678;11.910;2023-07-29T10:44:49;12.13;;;6.60;;
49962;SDS011;36180;57.678;11.910;2023-07-29T10:47:18;11.75;;;7.20;;
49962;SDS011;36180;57.678;11.910;2023-07-29T10:49:51;9.93;;;6.72;;
49962;SDS011;36180;57.678;11.910;2023-07-29T10:52:39;7.85;;;6.38;;
49962;SDS011;36180;57.678;11.910;2023-07-29T10:57:50;7.20;;;6.22;;
49962;SDS011;36180;57.678;11.910;2023-07-29T11:00:18;9.55;;;6.05;;
49962;SDS011;36180;57.678;11.910;2023-07-29T11:02:56;7.00;;;5.30;;
49962;SDS011;36180;57.678;11.910;2023-07-29T11:05:26;9.82;;;5.25;;
49962;SDS011;36180;57.678;11.910;2023-07-29T11:07:53;6.13;;;5.45;;
49962;SDS011;36180;57.678;11.910;2023-07-29T11:10:20;4.75;;;4.30;;
49962;SDS011;36180;57.678;11.910;2023-07-29T11:12:48;6.22;;;5.47;;
49962;SDS011;36180;57.678;11.910;2023-07-29T11:15:21;6.75;;;4.80;;
49962;SDS011;36180;57.678;11.910;2023-07-29T11:20:17;6.63;;;4.97;;
49962;SDS011;36180;57.678;11.910;2023-07-29T11:22:46;8.75;;;5.13;;
49962;SDS011;36180;57.678;11.910;2023-07-29T11:25:14;6.63;;;5.00;;
49962;SDS011;36180;57.678;11.910;2023-07-29T11:27:42;7.97;;;5.32;;
49962;SDS011;36180;57.678;11.910;2023-07-29T11:30:10;5.43;;;4.30;;
49962;SDS011;36180;57.678;11.910;2023-07-29T11:32:40;5.45;;;4.07;;
49962;SDS011;36180;57.678;11.910;2023-07-29T11:35:09;6.07;;;4.15;;
49962;SDS011;36180;57.678;11.910;2023-07-29T11:37:38;5.45;;;3.55;;
49962;SDS011;36180;57.678;11.910;2023-07-29T11:40:07;4.53;;;3.40;;
49962;SDS011;36180;57.678;11.910;2023-07-29T11:42:36;5.22;;;3.42;;
49962;SDS011;36180;57.678;11.910;2023-07-29T11:45:03;3.70;;;2.83;;
49962;SDS011;36180;57.678;11.910;2023-07-29T11:47:33;3.30;;;2.63;;
49962;SDS011;36180;57.678;11.910;2023-07-29T11:50:02;2.60;;;2.40;;
49962;SDS011;36180;57.678;11.910;2023-07-29T11:52:31;4.43;;;2.58;;
49962;SDS011;36180;57.678;11.910;2023-07-29T11:54:58;3.25;;;2.38;;
49962;SDS011;36180;57.678;11.910;2023-07-29T11:57:27;2.58;;;2.35;;
49962;SDS011;36180;57.678;11.910;2023-07-29T11:59:55;3.35;;;1.90;;
49962;SDS011;36180;57.678;11.910;2023-07-29T12:02:22;3.67;;;2.17;;
49962;SDS011;36180;57.678;11.910;2023-07-29T12:04:50;1.60;;;1.50;;
49962;SDS011;36180;57.678;11.910;2023-07-29T12:07:17;1.67;;;1.33;;
49962;SDS011;36180;57.678;11.910;2023-07-29T12:09:45;1.50;;;1.40;;
49962;SDS011;36180;57.678;11.910;2023-07-29T12:12:13;1.85;;;1.55;;
49962;SDS011;36180;57.678;11.910;2023-07-29T12:14:44;1.58;;;1.33;;
49962;SDS011;36180;57.678;11.910;2023-07-29T12:19:39;2.20;;;1.35;;
49962;SDS011;36180;57.678;11.910;2023-07-29T12:22:08;3.63;;;1.70;;
49962;SDS011;36180;57.678;11.910;2023-07-29T12:24:36;4.20;;;1.52;;
49962;SDS011;36180;57.678;11.910;2023-07-29T12:27:04;2.05;;;1.50;;
49962;SDS011;36180;57.678;11.910;2023-07-29T12:29:32;3.05;;;1.50;;
49962;SDS011;36180;57.678;11.910;2023-07-29T12:32:07;1.80;;;1.70;;
49962;SDS011;36180;57.678;11.910;2023-07-29T12:34:35;1.83;;;1.70;;
49962;SDS011;36180;57.678;11.910;2023-07-29T12:37:03;2.03;;;1.70;;
49962;SDS011;36180;57.678;11.910;2023-07-29T12:39:32;1.95;;;1.70;;
49962;SDS011;36180;57.678;11.910;2023-07-29T12:42:01;1.58;;;1.48;;
49962;SDS011;36180;57.678;11.910;2023-07-29T12:44:30;1.50;;;1.20;;
49962;SDS011;36180;57.678;11.910;2023-07-29T12:46:59;2.20;;;1.52;;
49962;SDS011;36180;57.678;11.910;2023-07-29T12:49:28;1.42;;;1.25;;
49962;SDS011;36180;57.678;11.910;2023-07-29T12:51:55;2.10;;;1.60;;
49962;SDS011;36180;57.678;11.910;2023-07-29T12:54:22;1.67;;;1.35;;
49962;SDS011;36180;57.678;11.910;2023-07-29T12:56:49;1.30;;;1.20;;
49962;SDS011;36180;57.678;11.910;2023-07-29T12:59:17;3.88;;;1.50;;
49962;SDS011;36180;57.678;11.910;2023-07-29T13:01:44;2.65;;;1.30;;
49962;SDS011;36180;57.678;11.910;2023-07-29T13:04:11;3.50;;;1.50;;
49962;SDS011;36180;57.678;11.910;2023-07-29T13:06:39;1.52;;;1.30;;
49962;SDS011;36180;57.678;11.910;2023-07-29T13:09:07;2.38;;;1.20;;
49962;SDS011;36180;57.678;11.910;2023-07-29T13:11:34;2.28;;;1.73;;
49962;SDS011;36180;57.678;11.910;2023-07-29T13:14:01;2.53;;;1.27;;
49962;SDS011;36180;57.678;11.910;2023-07-29T13:16:28;1.40;;;1.30;;
49962;SDS011;36180;57.678;11.910;2023-07-29T13:18:55;1.50;;;1.30;;
49962;SDS011;36180;57.678;11.910;2023-07-29T13:21:23;1.20;;;1.10;;
49962;SDS011;36180;57.678;11.910;2023-07-29T13:23:52;2.80;;;1.20;;
49962;SDS011;36180;57.678;11.910;2023-07-29T13:26:19;1.70;;;1.23;;
49962;SDS011;36180;57.678;11.910;2023-07-29T13:28:46;1.10;;;1.08;;
49962;SDS011;36180;57.678;11.910;2023-07-29T13:31:13;1.40;;;1.30;;
49962;SDS011;36180;57.678;11.910;2023-07-29T13:33:40;1.38;;;1.27;;
49962;SDS011;36180;57.678;11.910;2023-07-29T13:36:07;2.05;;;1.85;;
49962;SDS011;36180;57.678;11.910;2023-07-29T13:38:34;7.97;;;1.60;;
49962;SDS011;36180;57.678;11.910;2023-07-29T13:41:03;4.50;;;1.30;;
49962;SDS011;36180;57.678;11.910;2023-07-29T13:43:30;2.15;;;1.60;;
49962;SDS011;36180;57.678;11.910;2023-07-29T13:45:57;1.17;;;1.02;;
49962;SDS011;36180;57.678;11.910;2023-07-29T13:48:24;1.48;;;1.38;;
49962;SDS011;36180;57.678;11.910;2023-07-29T13:50:51;2.83;;;1.80;;
49962;SDS011;36180;57.678;11.910;2023-07-29T13:53:18;1.75;;;1.40;;
49962;SDS011;36180;57.678;11.910;2023-07-29T13:55:46;2.80;;;1.45;;
49962;SDS011;36180;57.678;11.910;2023-07-29T13:58:14;1.80;;;1.48;;
49962;SDS011;36180;57.678;11.910;2023-07-29T14:00:41;1.40;;;1.30;;
49962;SDS011;36180;57.678;11.910;2023-07-29T14:03:08;3.13;;;1.48;;
49962;SDS011;36180;57.678;11.910;2023-07-29T14:05:35;1.33;;;1.23;;
49962;SDS011;36180;57.678;11.910;2023-07-29T14:08:02;1.30;;;1.20;;
49962;SDS011;36180;57.678;11.910;2023-07-29T14:10:30;1.63;;;1.30;;
49962;SDS011;36180;57.678;11.910;2023-07-29T14:12:57;1.42;;;1.33;;
49962;SDS011;36180;57.678;11.910;2023-07-29T14:15:25;3.17;;;1.45;;
49962;SDS011;36180;57.678;11.910;2023-07-29T14:17:53;1.40;;;1.30;;
49962;SDS011;36180;57.678;11.910;2023-07-29T14:20:20;2.55;;;1.30;;
49962;SDS011;36180;57.678;11.910;2023-07-29T14:22:47;1.35;;;1.25;;
49962;SDS011;36180;57.678;11.910;2023-07-29T14:25:15;1.75;;;1.30;;
49962;SDS011;36180;57.678;11.910;2023-07-29T14:27:42;1.70;;;1.40;;
49962;SDS011;36180;57.678;11.910;2023-07-29T14:30:09;2.38;;;1.15;;
49962;SDS011;36180;57.678;11.910;2023-07-29T14:32:38;1.40;;;1.30;;
49962;SDS011;36180;57.678;11.910;2023-07-29T14:35:05;1.63;;;1.38;;
49962;SDS011;36180;57.678;11.910;2023-07-29T14:37:33;1.48;;;1.02;;
49962;SDS011;36180;57.678;11.910;2023-07-29T14:40:00;1.55;;;1.35;;
49962;SDS011;36180;57.678;11.910;2023-07-29T14:42:27;1.60;;;1.50;;
49962;SDS011;36180;57.678;11.910;2023-07-29T14:44:55;2.17;;;1.42;;
49962;SDS011;36180;57.678;11.910;2023-07-29T14:47:22;1.55;;;1.40;;